Observations

81.3 °F / 27.4 °C
NE at 20 MPH
97%
80.6°F / 27.0 °C
29.83" (1010 mb)
10 mile(s)
overcast
2020.01.25 2040 UTC

Observations

Surface


Raw METARs

2020/01/25 20:40
PKWA 252040Z AUTO 05017KT 10SM SCT019 BKN041 OVC048 27/27 A2983 RMK AO2 LTG DSNT S T02740270

Translated METAR

Kwajalein, Bucholz AAF, Kwajalein KMR ATOL Airport, Marshall Islands (PKWA) 08-43N 167-44E 2M
Jan 25, 2020 - 03:40 PM EST / 2020.01.25 2040 UTC
Wind: from the NE (050 degrees) at 20 MPH (17 KT):0
Visibility: 10 mile(s):0
Sky conditions: overcast
Weather: Lightning observed
Temperature: 81.3 F (27.4 C)
Dew Point: 80.6 F (27.0 C)
Relative Humidity: 97%
Pressure (altimeter): 29.83 in. Hg (1010 hPa)
ob: PKWA 252040Z AUTO 05017KT 10SM SCT019 BKN041 OVC048 27/27 A2983 RMK AO2 LTG DSNT S T02740270
cycle: 20



Upper Air


Latest Skew-T

Skew T Diagram

Latest Data File